createdAt,value
2017-10-31T00:00:52.220Z,99.90
2017-10-31T00:03:18.672Z,99.90
2017-10-31T00:05:45.077Z,99.90
2017-10-31T00:08:12.247Z,99.90
2017-10-31T00:10:38.656Z,99.90
2017-10-31T00:13:05.073Z,99.90
2017-10-31T00:15:31.484Z,99.90
2017-10-31T00:17:57.936Z,99.90
2017-10-31T00:20:24.327Z,99.90
2017-10-31T00:22:50.721Z,99.90
2017-10-31T00:25:17.129Z,99.90
2017-10-31T00:27:44.332Z,99.90
2017-10-31T00:30:10.736Z,99.90
2017-10-31T00:32:37.863Z,99.90
2017-10-31T00:35:04.271Z,99.90
2017-10-31T00:37:30.631Z,99.90
2017-10-31T00:39:57.053Z,99.90
2017-10-31T00:42:23.443Z,99.90
2017-10-31T00:44:49.869Z,99.90
2017-10-31T00:47:16.256Z,99.90
2017-10-31T00:49:43.395Z,99.90
2017-10-31T00:52:09.916Z,99.90
2017-10-31T00:54:36.363Z,99.90
2017-10-31T00:57:03.579Z,99.90
2017-10-31T00:59:29.959Z,99.90
2017-10-31T01:01:56.383Z,99.90
2017-10-31T01:04:22.770Z,99.90
2017-10-31T01:06:56.994Z,99.90
2017-10-31T01:09:23.382Z,99.90
2017-10-31T01:11:49.857Z,99.90
2017-10-31T01:14:16.261Z,99.90
2017-10-31T01:16:43.399Z,99.90
2017-10-31T01:19:10.543Z,99.90
2017-10-31T01:21:37.012Z,99.90
2017-10-31T01:24:04.161Z,99.90
2017-10-31T01:26:31.291Z,99.90
2017-10-31T01:28:57.683Z,99.90
2017-10-31T01:31:24.126Z,99.90
2017-10-31T01:33:50.544Z,99.90
2017-10-31T01:36:18.461Z,99.90
2017-10-31T01:38:45.011Z,99.90
2017-10-31T01:41:11.429Z,99.90
2017-10-31T01:43:38.675Z,99.90
2017-10-31T01:46:05.868Z,99.90
2017-10-31T01:48:32.338Z,99.90
2017-10-31T01:50:58.769Z,99.90
2017-10-31T01:53:25.304Z,99.90
2017-10-31T01:55:51.813Z,99.90
2017-10-31T01:58:18.993Z,99.90
2017-10-31T02:00:45.479Z,99.90
2017-10-31T02:03:11.928Z,99.90
2017-10-31T02:05:38.442Z,99.90
2017-10-31T02:08:04.943Z,99.90
2017-10-31T02:10:31.386Z,99.90
2017-10-31T02:12:57.823Z,99.90
2017-10-31T02:15:24.239Z,99.90
2017-10-31T02:17:50.669Z,99.90
2017-10-31T02:20:17.147Z,99.90
2017-10-31T02:22:43.784Z,99.90
2017-10-31T02:25:10.220Z,99.90
2017-10-31T02:27:36.732Z,99.90
2017-10-31T02:30:03.206Z,99.90
2017-10-31T02:32:29.655Z,99.90
2017-10-31T02:34:56.114Z,99.90
2017-10-31T02:37:22.576Z,99.90
2017-10-31T02:39:49.025Z,99.90
2017-10-31T02:42:15.535Z,99.90
2017-10-31T02:44:41.987Z,99.90
2017-10-31T02:47:08.512Z,99.90
2017-10-31T02:49:34.953Z,99.90
2017-10-31T02:52:01.733Z,99.90
2017-10-31T02:54:29.705Z,99.90
2017-10-31T02:56:56.225Z,99.90
2017-10-31T02:59:22.689Z,99.90
2017-10-31T03:01:49.139Z,99.90
2017-10-31T03:04:15.626Z,99.90
2017-10-31T03:06:42.092Z,99.90
2017-10-31T03:09:08.597Z,99.90
2017-10-31T03:11:35.133Z,99.90
2017-10-31T03:14:01.653Z,99.90
2017-10-31T03:16:28.127Z,99.90
2017-10-31T03:18:55.353Z,99.90
2017-10-31T03:21:21.800Z,99.90
2017-10-31T03:23:48.278Z,99.90
2017-10-31T03:26:14.767Z,99.90
2017-10-31T03:28:41.270Z,99.90
2017-10-31T03:31:08.552Z,99.90
2017-10-31T03:33:35.027Z,99.90
2017-10-31T03:36:01.517Z,99.90
2017-10-31T03:38:28.001Z,99.90
2017-10-31T03:40:54.509Z,99.90
2017-10-31T03:43:21.827Z,99.90
2017-10-31T03:45:48.343Z,99.90
2017-10-31T03:48:14.812Z,99.90
2017-10-31T03:50:41.285Z,99.90
2017-10-31T03:53:07.733Z,99.90
2017-10-31T03:55:34.347Z,99.90
2017-10-31T03:58:00.837Z,99.90
2017-10-31T04:00:27.386Z,99.90
2017-10-31T04:02:54.581Z,99.90
2017-10-31T04:05:21.197Z,99.90
2017-10-31T04:07:47.681Z,99.90
2017-10-31T04:10:14.155Z,99.90
2017-10-31T04:12:40.621Z,99.90
2017-10-31T04:15:07.085Z,99.90
2017-10-31T04:17:34.370Z,99.90
2017-10-31T04:20:00.810Z,99.90
2017-10-31T04:22:27.769Z,99.90
2017-10-31T04:24:54.268Z,99.90
2017-10-31T04:27:22.228Z,99.90
2017-10-31T04:29:49.412Z,99.90
2017-10-31T04:32:17.403Z,99.90
2017-10-31T04:34:43.878Z,99.90
2017-10-31T04:37:10.296Z,99.90
2017-10-31T04:39:36.803Z,99.90
2017-10-31T04:42:04.058Z,99.90
2017-10-31T04:44:30.516Z,99.90
2017-10-31T04:46:56.941Z,99.90
2017-10-31T04:49:23.388Z,99.90
2017-10-31T04:51:49.817Z,99.90
2017-10-31T04:54:16.412Z,99.90
2017-10-31T04:56:42.869Z,99.90
2017-10-31T04:59:10.096Z,99.90
2017-10-31T05:01:36.572Z,99.90
2017-10-31T05:04:03.132Z,99.90
2017-10-31T05:06:29.904Z,99.90
2017-10-31T05:08:56.377Z,99.90
2017-10-31T05:11:23.664Z,99.90
2017-10-31T05:13:50.112Z,99.90
2017-10-31T05:16:16.645Z,99.90
2017-10-31T05:18:44.550Z,99.90
2017-10-31T05:21:11.030Z,99.90
2017-10-31T05:23:37.521Z,99.90
2017-10-31T05:26:04.704Z,99.90
2017-10-31T05:28:31.459Z,99.90
2017-10-31T05:30:57.916Z,99.90
2017-10-31T05:33:24.363Z,99.90
2017-10-31T05:35:50.797Z,99.90
2017-10-31T05:38:17.301Z,99.90
2017-10-31T05:40:44.862Z,99.90
2017-10-31T05:43:12.855Z,99.90
2017-10-31T05:45:39.312Z,99.90
2017-10-31T05:48:05.818Z,99.90
2017-10-31T05:50:33.027Z,99.90
2017-10-31T05:53:00.629Z,99.90
2017-10-31T05:55:28.775Z,99.90
2017-10-31T05:57:56.468Z,99.90
2017-10-31T06:00:22.959Z,99.90
2017-10-31T06:02:50.173Z,99.90
2017-10-31T06:05:18.666Z,99.90
2017-10-31T06:07:47.607Z,99.90
2017-10-31T06:10:15.361Z,99.90
2017-10-31T06:12:42.920Z,99.90
2017-10-31T06:15:09.830Z,99.90
2017-10-31T06:17:36.639Z,99.90
2017-10-31T06:20:04.220Z,99.90
2017-10-31T06:22:37.662Z,99.90
2017-10-31T06:25:11.464Z,99.90
2017-10-31T06:27:43.943Z,99.90
2017-10-31T06:30:18.507Z,99.90
2017-10-31T06:32:48.194Z,99.90
2017-10-31T06:35:19.056Z,99.90
2017-10-31T06:37:46.560Z,99.90
2017-10-31T06:40:13.839Z,99.90
2017-10-31T06:42:40.450Z,99.90
2017-10-31T06:45:08.330Z,99.90
2017-10-31T06:47:34.928Z,99.90
2017-10-31T06:50:03.489Z,99.90
2017-10-31T06:52:31.492Z,99.90
2017-10-31T06:54:58.813Z,99.90
2017-10-31T06:57:25.479Z,99.90
2017-10-31T06:59:52.023Z,99.90
2017-10-31T07:02:19.837Z,99.90
2017-10-31T07:04:47.153Z,99.90
2017-10-31T07:07:13.795Z,99.90
2017-10-31T07:09:41.054Z,99.90
2017-10-31T07:12:09.179Z,99.90
2017-10-31T07:14:37.186Z,99.90
2017-10-31T07:17:04.698Z,99.90
2017-10-31T07:19:32.561Z,99.90
2017-10-31T07:21:59.185Z,99.90
2017-10-31T07:24:26.529Z,99.90
2017-10-31T07:26:55.210Z,99.90
2017-10-31T07:29:21.735Z,99.90
2017-10-31T07:31:48.192Z,99.90
2017-10-31T07:34:14.685Z,99.90
2017-10-31T07:36:42.881Z,99.90
2017-10-31T07:39:11.189Z,99.90
2017-10-31T07:41:37.851Z,99.90
2017-10-31T07:44:04.976Z,99.90
2017-10-31T07:46:32.130Z,99.90
2017-10-31T07:48:59.607Z,99.90
2017-10-31T07:51:26.249Z,99.90
2017-10-31T07:53:53.100Z,99.90
2017-10-31T07:56:19.686Z,99.90
2017-10-31T07:58:46.208Z,99.90
2017-10-31T08:01:14.333Z,99.90
2017-10-31T08:03:44.661Z,99.90
2017-10-31T08:06:12.059Z,99.90
2017-10-31T08:08:43.813Z,99.90
2017-10-31T08:11:11.356Z,99.90
2017-10-31T08:13:39.851Z,99.90
2017-10-31T08:16:07.513Z,99.90
2017-10-31T08:18:40.450Z,99.90
2017-10-31T08:21:08.645Z,99.90
2017-10-31T08:23:36.931Z,99.90
2017-10-31T08:26:03.548Z,99.90
2017-10-31T08:28:30.670Z,99.90
2017-10-31T08:30:58.044Z,99.90
2017-10-31T08:33:28.156Z,99.90
2017-10-31T08:35:56.320Z,99.90
2017-10-31T08:38:24.888Z,99.90
2017-10-31T08:40:55.293Z,99.90
2017-10-31T08:43:23.628Z,99.90
2017-10-31T08:45:51.391Z,99.90
2017-10-31T08:48:20.428Z,99.90
2017-10-31T08:50:48.804Z,99.90
2017-10-31T08:53:16.544Z,99.90
2017-10-31T08:55:53.935Z,99.90
2017-10-31T08:58:22.310Z,99.90
2017-10-31T09:03:38.019Z,99.90
2017-10-31T09:06:05.263Z,99.90
2017-10-31T09:08:32.835Z,99.90
2017-10-31T09:11:00.664Z,99.90
2017-10-31T09:13:28.077Z,99.90
2017-10-31T09:15:55.872Z,99.90
2017-10-31T09:18:23.668Z,99.90
2017-10-31T09:20:52.713Z,99.90
2017-10-31T09:23:21.537Z,99.90
2017-10-31T09:25:48.096Z,99.90
2017-10-31T09:28:14.667Z,99.90
2017-10-31T09:30:42.538Z,99.90
2017-10-31T09:33:20.068Z,99.90
2017-10-31T09:35:46.614Z,99.90
2017-10-31T09:38:14.579Z,99.90
2017-10-31T09:40:41.319Z,99.90
2017-10-31T09:43:07.942Z,99.90
2017-10-31T09:45:34.631Z,99.90
2017-10-31T09:48:05.020Z,99.90
2017-10-31T09:50:31.686Z,99.90
2017-10-31T09:53:00.727Z,99.90
2017-10-31T09:55:31.988Z,99.90
2017-10-31T09:57:58.749Z,99.90
2017-10-31T10:00:25.395Z,99.90
2017-10-31T10:02:54.942Z,99.90
2017-10-31T10:05:23.350Z,99.90
2017-10-31T10:07:53.243Z,99.90
2017-10-31T10:10:20.843Z,99.90
2017-10-31T10:12:47.613Z,99.90
2017-10-31T10:15:14.270Z,99.90
2017-10-31T10:17:42.505Z,98.20
2017-10-31T10:20:10.021Z,98.30
2017-10-31T10:22:38.692Z,98.30
2017-10-31T10:25:06.966Z,98.30
2017-10-31T10:27:33.610Z,98.30
2017-10-31T10:30:01.284Z,98.40
2017-10-31T10:32:30.078Z,99.00
2017-10-31T10:34:58.500Z,99.40
2017-10-31T10:37:26.009Z,99.40
2017-10-31T10:39:52.558Z,99.50
2017-10-31T10:42:19.073Z,99.30
2017-10-31T10:44:45.763Z,98.70
2017-10-31T10:47:13.324Z,98.10
2017-10-31T10:49:39.967Z,98.50
2017-10-31T10:52:08.210Z,97.70
2017-10-31T10:54:36.412Z,97.90
2017-10-31T10:57:05.912Z,98.00
2017-10-31T10:59:35.717Z,98.80
2017-10-31T11:02:02.395Z,98.70
2017-10-31T11:04:30.001Z,98.40
2017-10-31T11:06:58.009Z,98.60
2017-10-31T11:09:24.563Z,98.60
2017-10-31T11:11:52.207Z,97.20
2017-10-31T11:14:19.558Z,97.30
2017-10-31T11:16:46.919Z,97.30
2017-10-31T11:19:14.976Z,97.30
2017-10-31T11:21:44.187Z,97.50
2017-10-31T11:24:12.701Z,97.50
2017-10-31T11:26:40.569Z,97.60
2017-10-31T11:29:07.260Z,97.60
2017-10-31T11:31:37.948Z,98.50
2017-10-31T11:34:08.529Z,97.60
2017-10-31T11:36:38.757Z,97.60
2017-10-31T11:39:08.396Z,97.90
2017-10-31T11:41:36.016Z,97.90
2017-10-31T11:44:03.455Z,97.90
2017-10-31T11:46:29.896Z,97.60
2017-10-31T11:48:57.860Z,97.00
2017-10-31T11:51:24.497Z,96.90
2017-10-31T11:53:51.875Z,96.40
2017-10-31T11:56:20.150Z,96.50
2017-10-31T11:58:47.353Z,96.70
2017-10-31T12:01:15.296Z,96.50
2017-10-31T12:03:43.509Z,96.10
2017-10-31T12:06:11.071Z,96.20
2017-10-31T12:08:37.860Z,96.30
2017-10-31T12:11:05.400Z,96.90
2017-10-31T12:13:32.836Z,96.90
2017-10-31T12:15:59.597Z,96.80
2017-10-31T12:18:26.949Z,96.80
2017-10-31T12:20:55.018Z,96.80
2017-10-31T12:23:21.593Z,96.50
2017-10-31T12:25:52.424Z,97.00
2017-10-31T12:28:21.044Z,97.00
2017-10-31T12:30:48.696Z,97.20
2017-10-31T12:33:16.436Z,97.10
2017-10-31T12:35:44.907Z,96.90
2017-10-31T12:38:12.276Z,96.90
2017-10-31T12:40:38.977Z,97.00
2017-10-31T12:43:05.626Z,96.80
2017-10-31T12:45:34.339Z,97.00
2017-10-31T12:48:01.214Z,97.60
2017-10-31T12:50:27.822Z,97.80
2017-10-31T12:52:55.414Z,98.00
2017-10-31T12:55:22.507Z,99.30
2017-10-31T12:57:49.086Z,99.30
2017-10-31T13:00:15.727Z,99.90
2017-10-31T13:02:42.285Z,99.90
2017-10-31T13:05:10.608Z,99.90
2017-10-31T13:10:29.212Z,99.90
2017-10-31T13:12:56.490Z,99.90
2017-10-31T13:15:23.796Z,99.90
2017-10-31T13:17:51.949Z,99.90
2017-10-31T13:20:20.724Z,99.50
2017-10-31T13:22:48.786Z,99.90
2017-10-31T13:25:16.094Z,99.00
2017-10-31T13:27:44.233Z,99.00
2017-10-31T13:30:14.703Z,99.30
2017-10-31T13:32:45.074Z,98.60
2017-10-31T13:35:12.765Z,98.60
2017-10-31T13:37:41.406Z,98.90
2017-10-31T13:40:09.020Z,98.80
2017-10-31T13:42:38.553Z,99.10
2017-10-31T13:45:05.019Z,99.00
2017-10-31T13:47:33.599Z,99.40
2017-10-31T13:50:03.267Z,98.50
2017-10-31T13:52:31.889Z,98.50
2017-10-31T13:54:59.403Z,98.50
2017-10-31T14:00:38.324Z,98.30
2017-10-31T14:03:06.296Z,97.60
2017-10-31T14:05:33.319Z,97.60
2017-10-31T14:08:00.921Z,98.30
2017-10-31T14:10:28.329Z,98.10
2017-10-31T14:12:56.655Z,98.80
2017-10-31T14:15:23.071Z,98.10
2017-10-31T14:17:49.523Z,98.20
2017-10-31T14:20:17.003Z,98.20
2017-10-31T14:22:43.477Z,98.30
2017-10-31T14:25:10.709Z,99.10
2017-10-31T14:27:37.168Z,99.10
2017-10-31T14:30:03.639Z,99.30
2017-10-31T14:32:30.815Z,99.90
2017-10-31T14:34:57.389Z,99.90
2017-10-31T14:37:23.810Z,99.90
2017-10-31T14:39:50.281Z,99.90
2017-10-31T14:42:17.865Z,99.90
2017-10-31T14:44:45.038Z,99.90
2017-10-31T14:47:11.525Z,99.90
2017-10-31T14:49:38.778Z,99.90
2017-10-31T14:52:08.940Z,99.90
2017-10-31T14:54:36.125Z,99.90
2017-10-31T14:57:02.625Z,99.90
2017-10-31T14:59:29.481Z,99.90
2017-10-31T15:01:55.910Z,99.90
2017-10-31T15:04:22.364Z,99.90
2017-10-31T15:06:48.846Z,99.90
2017-10-31T15:09:15.297Z,99.90
2017-10-31T15:11:41.767Z,99.90
2017-10-31T15:14:08.921Z,99.90
2017-10-31T15:16:35.435Z,99.90
2017-10-31T15:19:01.965Z,99.90
2017-10-31T15:21:29.156Z,99.90
2017-10-31T15:23:56.979Z,99.90
2017-10-31T15:26:23.472Z,99.90
2017-10-31T15:28:50.761Z,99.90
2017-10-31T15:31:17.189Z,99.90
2017-10-31T15:33:44.371Z,99.90
2017-10-31T15:36:10.830Z,99.90
2017-10-31T15:38:38.014Z,99.90
2017-10-31T15:41:06.273Z,99.90
2017-10-31T15:43:32.755Z,99.90
2017-10-31T15:45:59.265Z,99.90
2017-10-31T15:48:25.675Z,99.90
2017-10-31T15:50:54.046Z,99.90
2017-10-31T15:53:22.138Z,99.90
2017-10-31T15:55:49.394Z,99.90
2017-10-31T15:58:16.700Z,99.90
2017-10-31T16:00:43.194Z,99.90
2017-10-31T16:03:10.388Z,99.90
2017-10-31T16:05:36.836Z,99.90
2017-10-31T16:08:03.260Z,99.90
2017-10-31T16:10:29.836Z,99.90
2017-10-31T16:13:00.048Z,99.90
2017-10-31T16:15:27.326Z,99.90
2017-10-31T16:17:53.822Z,99.90
2017-10-31T16:20:20.365Z,99.90
2017-10-31T16:22:46.909Z,99.90
2017-10-31T16:25:13.410Z,99.90
2017-10-31T16:27:42.427Z,99.90
2017-10-31T16:30:08.839Z,99.90
2017-10-31T16:32:36.273Z,99.90
2017-10-31T16:35:02.730Z,99.90
2017-10-31T16:37:29.127Z,99.90
2017-10-31T16:39:55.521Z,99.90
2017-10-31T16:42:22.634Z,99.90
2017-10-31T16:44:49.156Z,99.90
2017-10-31T16:47:15.606Z,99.90
2017-10-31T16:49:42.021Z,99.90
2017-10-31T16:52:08.374Z,99.90
2017-10-31T16:54:34.765Z,99.90
2017-10-31T16:57:01.182Z,99.90
2017-10-31T16:59:27.563Z,99.90
2017-10-31T17:01:53.945Z,99.90
2017-10-31T17:04:20.394Z,99.90
2017-10-31T17:06:47.524Z,99.90
2017-10-31T17:09:14.000Z,99.90
2017-10-31T17:11:40.374Z,99.90
2017-10-31T17:14:06.862Z,99.90
2017-10-31T17:16:33.290Z,99.90
2017-10-31T17:19:00.410Z,99.90
2017-10-31T17:21:26.862Z,99.90
2017-10-31T17:23:53.247Z,99.90
2017-10-31T17:26:20.449Z,99.90
2017-10-31T17:28:46.861Z,99.90
2017-10-31T17:31:14.193Z,99.90
2017-10-31T17:33:40.749Z,99.90
2017-10-31T17:36:07.187Z,99.90
2017-10-31T17:38:33.525Z,99.90
2017-10-31T17:40:59.924Z,99.90
2017-10-31T17:43:26.336Z,99.90
2017-10-31T17:45:53.473Z,99.90
2017-10-31T17:48:19.905Z,99.90
2017-10-31T17:50:46.327Z,99.90
2017-10-31T17:53:13.483Z,99.90
2017-10-31T17:55:39.893Z,99.90
2017-10-31T17:58:06.437Z,99.90
2017-10-31T18:00:32.825Z,99.90
2017-10-31T18:03:06.163Z,99.90
2017-10-31T18:05:32.573Z,99.90
2017-10-31T18:07:58.982Z,99.90
2017-10-31T18:10:25.415Z,99.90
2017-10-31T18:12:51.843Z,99.90
2017-10-31T18:15:18.198Z,99.90
2017-10-31T18:17:44.633Z,99.90
2017-10-31T18:20:11.811Z,99.90
2017-10-31T18:22:38.173Z,99.90
2017-10-31T18:25:04.634Z,99.90
2017-10-31T18:27:31.035Z,99.90
2017-10-31T18:29:57.449Z,99.90
2017-10-31T18:32:23.827Z,99.90
2017-10-31T18:34:50.271Z,99.90
2017-10-31T18:37:16.873Z,99.90
2017-10-31T18:39:43.978Z,99.90
2017-10-31T18:42:10.362Z,99.90
2017-10-31T18:44:37.064Z,99.90
2017-10-31T18:47:03.466Z,99.90
2017-10-31T18:49:29.870Z,99.90
2017-10-31T18:51:56.285Z,99.90
2017-10-31T18:54:22.660Z,99.90
2017-10-31T18:56:49.055Z,99.90
2017-10-31T18:59:15.439Z,99.90
2017-10-31T19:01:41.856Z,99.90
2017-10-31T19:04:08.240Z,99.90
2017-10-31T19:06:34.598Z,99.90
2017-10-31T19:09:01.763Z,99.90
2017-10-31T19:11:28.887Z,99.90
2017-10-31T19:13:55.423Z,99.90
2017-10-31T19:16:21.795Z,99.90
2017-10-31T19:18:48.225Z,99.90
2017-10-31T19:21:14.612Z,99.90
2017-10-31T19:23:41.033Z,99.90
2017-10-31T19:26:07.417Z,99.90
2017-10-31T19:28:33.784Z,99.90
2017-10-31T19:31:00.163Z,99.90
2017-10-31T19:33:26.521Z,99.90
2017-10-31T19:35:52.901Z,99.90
2017-10-31T19:38:19.322Z,99.90
2017-10-31T19:40:45.717Z,99.90
2017-10-31T19:43:12.953Z,99.90
2017-10-31T19:45:40.093Z,99.90
2017-10-31T19:48:06.466Z,99.90
2017-10-31T19:50:32.883Z,99.90
2017-10-31T19:52:59.998Z,99.90
2017-10-31T19:55:26.397Z,99.90
2017-10-31T19:57:53.501Z,99.90
2017-10-31T20:00:20.737Z,99.90
2017-10-31T20:02:47.103Z,99.90
2017-10-31T20:05:13.530Z,99.90
2017-10-31T20:07:39.945Z,99.90
2017-10-31T20:10:07.043Z,99.90
2017-10-31T20:12:33.467Z,99.90
2017-10-31T20:14:59.826Z,99.90
2017-10-31T20:17:26.173Z,99.90
2017-10-31T20:19:52.537Z,99.90
2017-10-31T20:22:19.013Z,99.90
2017-10-31T20:24:45.402Z,99.90
2017-10-31T20:27:11.734Z,99.90
2017-10-31T20:29:38.101Z,99.90
2017-10-31T20:32:04.502Z,99.90
2017-10-31T20:34:30.913Z,99.90
2017-10-31T20:36:57.360Z,99.90
2017-10-31T20:39:24.473Z,99.90
2017-10-31T20:41:50.882Z,99.90
2017-10-31T20:44:17.265Z,99.90
2017-10-31T20:46:43.639Z,99.90
2017-10-31T20:49:10.022Z,99.90
2017-10-31T20:51:36.425Z,99.90
2017-10-31T20:54:02.938Z,99.90
2017-10-31T20:56:29.289Z,99.90
2017-10-31T20:58:55.713Z,99.90
2017-10-31T21:01:22.142Z,99.90
2017-10-31T21:03:48.608Z,99.90
2017-10-31T21:06:15.052Z,99.90
2017-10-31T21:08:41.565Z,99.90
2017-10-31T21:11:07.930Z,99.90
2017-10-31T21:13:34.456Z,99.90
2017-10-31T21:16:00.883Z,99.90
2017-10-31T21:18:28.007Z,99.90
2017-10-31T21:20:54.407Z,99.90
2017-10-31T21:23:20.837Z,99.90
2017-10-31T21:25:47.976Z,99.90
2017-10-31T21:28:14.402Z,99.90
2017-10-31T21:30:40.773Z,99.90
2017-10-31T21:33:07.201Z,99.90
2017-10-31T21:35:33.594Z,99.90
2017-10-31T21:38:00.052Z,99.90
2017-10-31T21:40:26.570Z,99.90
2017-10-31T21:42:52.956Z,99.90
2017-10-31T21:45:19.353Z,99.90
2017-10-31T21:47:45.728Z,99.90
2017-10-31T21:50:12.152Z,99.90
2017-10-31T21:52:39.544Z,99.90
2017-10-31T21:55:05.939Z,99.90
2017-10-31T21:57:32.329Z,99.90
2017-10-31T21:59:59.506Z,99.90
2017-10-31T22:02:26.588Z,99.90
2017-10-31T22:04:53.005Z,99.90
2017-10-31T22:07:19.394Z,99.90
2017-10-31T22:09:45.774Z,99.90
2017-10-31T22:12:12.223Z,99.90
2017-10-31T22:14:39.332Z,99.90
2017-10-31T22:17:05.870Z,99.90
2017-10-31T22:19:32.291Z,99.90
2017-10-31T22:21:58.717Z,99.90
2017-10-31T22:24:25.170Z,99.90
2017-10-31T22:26:51.597Z,99.90
2017-10-31T22:29:18.014Z,99.90
2017-10-31T22:31:44.555Z,99.90
2017-10-31T22:34:10.942Z,99.90
2017-10-31T22:36:38.063Z,99.90
2017-10-31T22:39:05.258Z,99.90
2017-10-31T22:41:31.694Z,99.90
2017-10-31T22:43:58.177Z,99.90
2017-10-31T22:46:24.603Z,99.90
2017-10-31T22:48:50.998Z,99.90
2017-10-31T22:51:17.455Z,99.90
2017-10-31T22:53:44.655Z,99.90
2017-10-31T22:56:11.093Z,99.90
2017-10-31T22:58:37.493Z,99.90
2017-10-31T23:01:03.889Z,99.90
2017-10-31T23:03:30.984Z,99.90
2017-10-31T23:05:57.365Z,99.90
2017-10-31T23:08:24.479Z,99.90
2017-10-31T23:10:50.901Z,99.90
2017-10-31T23:13:17.266Z,99.90
2017-10-31T23:15:43.679Z,99.90
2017-10-31T23:18:10.003Z,99.90
2017-10-31T23:20:36.367Z,99.90
2017-10-31T23:23:02.711Z,99.90
2017-10-31T23:25:29.135Z,99.90
2017-10-31T23:27:55.459Z,99.90
2017-10-31T23:30:21.826Z,99.90
2017-10-31T23:32:48.181Z,99.90
2017-10-31T23:35:15.265Z,99.90
2017-10-31T23:37:42.405Z,99.90
2017-10-31T23:40:08.805Z,99.90
2017-10-31T23:42:35.143Z,99.90
2017-10-31T23:45:01.531Z,99.90
2017-10-31T23:47:28.697Z,99.90
2017-10-31T23:49:55.796Z,99.90
2017-10-31T23:52:22.187Z,99.90
2017-10-31T23:54:48.563Z,99.90
2017-10-31T23:57:14.932Z,99.90
2017-10-31T23:59:41.309Z,99.90
